Jonesboro, AR (72404)

1:42 PM CDT on July 25, 2014 (GMT -0500)
Jonesboro Municipal (KJBR) Elev 262 ft | 35.83 °N, 90.65 °W | Change Station

Current weather conditions updated 49 minutes ago

Clear
Clear
80 °F
Feels Like 82 °F
N
6
Wind Variable Wind from South

Today is forecast to be Warmer than yesterday.

Today
High -- | Low -- °F
--% Chance of Precip.
Yesterday
High -- | Low -- °F
Precip. -- in
6:05 AM 8:13 PM
Waning Crescent, 1% visible
Pressure 30.03 in
Visibility 10.0 miles
Clouds Clear
Heat Index 82 °F
Dew Point 63 °F
Humidity 56%
Rainfall 0.01 in
Snow Depth Not available.
UV 12 out of 12
Pollen 5.50 out of 12
Air Quality Not available.
Flu Activity Not available.
METAR KJBR 251753Z AUTO 18005KT 10SM CLR 27/17 A3004 RMK AO2 SLP169 T02670172 10272 20172 58009

More Conditions Fewer Conditions

Pressure 30.03 in
Visibility 10.0 miles
Clouds Clear
Heat Index 82 °F
Dew Point 63 °F
Humidity 56%
Rainfall 0.01 in
Snow Depth Not available.
UV 12 out of 12
Pollen 5.50 out of 12
Air Quality Not available.
Flu Activity Not available.
METAR KJBR 251753Z AUTO 18005KT 10SM CLR 27/17 A3004 RMK AO2 SLP169 T02670172 10272 20172 58009

More Conditions Fewer Conditions

10-Day Weather Forecast

Almanac

Astronomy

Jul. 25, 2014 Rise Set
Actual Time 6:05 AM CDT 8:13 PM CDT
Civil Twilight 5:36 AM CDT 8:41 PM CDT
Nautical Twilight 5:01 AM CDT 9:16 PM CDT
Astronomical Twilight 4:23 AM CDT 9:54 PM CDT
Moon 5:03 AM CDT 7:11 PM CDT
Length of Visible Light 15h 05m
Length of Day
14h 07m
Tomorrow will be 1m 31s shorter.
Waning Crescent, 1% of the Moon is Illuminated
Today
Waning Crescent
Jul 26
New
Aug 3
First Quarter
Aug 10
Full
Aug 17
Last Quarter

Today's Extremes

State Highs State Lows

Community

WunderPhotos

Upload Photos

1,737,371 photos uploaded!

Nearby

Snow Depth

Station Depth Elevation
No new snow has been reported.

Earthquake Activity

City Distance Mag. Time & Date
No recent earthquake activity has been reported nearby.
Minimum magnitude displayed is 2.5.

Coastal Water Temperatures

Place Temperature
No Stations Reporting

Nearby Weather Stations

Station Location Temp. Heat Index Dew Point Humidity Wind Precip. Elev Updated Type
MesoWest JNSBRO , Jonesboro, AR 87 °F 84 °F - - North  at  - 0.00 in / hr 285 ft 12:05 PM CDT MADIS
MesoWest HARRIS , Harrisburg, AR 82 °F 80 °F - - North  at  - 0.00 in / hr 250 ft 12:00 PM CDT MADIS
MesoWest OTWELL , Weiner, AR 77 °F 75 °F - - North  at  - 0.00 in / hr 250 ft 12:25 PM CDT MADIS
MesoWest BETHEL , Brookland, AR 78 °F 76 °F - - North  at  - 0.00 in / hr 288 ft 11:35 AM CDT MADIS
Boward and Wofford, Waldenburg, AR 81.7 °F 84 °F 66 °F 59% SSE  at  0.0 mph 0.00 in / hr 243 ft 1:29 PM CDT Normal
William White Subdivision, Paragould, AR 83.5 °F 87 °F 70 °F 63% ENE  at  9.8 mph 0.00 in / hr 331 ft 1:42 PM CDT Rapid Fire
MesoWest WLDNBG , Fisher, AR 88 °F 85 °F - - North  at  - 0.00 in / hr 236 ft 12:45 PM CDT MADIS

Show More Stations Show Fewer Stations